createdAt,value
2022-08-30T00:00:34.579Z,4.10
2022-08-30T00:03:02.745Z,3.53
2022-08-30T00:05:31.612Z,4.20
2022-08-30T00:07:59.359Z,3.93
2022-08-30T00:10:29.691Z,4.33
2022-08-30T00:13:01.452Z,4.20
2022-08-30T00:15:30.131Z,4.30
2022-08-30T00:17:57.898Z,3.70
2022-08-30T00:20:28.292Z,4.10
2022-08-30T00:22:56.499Z,4.03
2022-08-30T00:25:24.583Z,3.70
2022-08-30T00:27:52.335Z,3.93
2022-08-30T00:30:22.049Z,4.00
2022-08-30T00:32:50.424Z,4.00
2022-08-30T00:35:20.429Z,4.53
2022-08-30T00:37:48.660Z,4.67
2022-08-30T00:40:16.864Z,4.40
2022-08-30T00:42:45.127Z,4.80
2022-08-30T00:45:22.467Z,4.53
2022-08-30T00:47:50.227Z,4.50
2022-08-30T00:50:21.662Z,3.93
2022-08-30T00:52:52.225Z,4.37
2022-08-30T00:55:21.036Z,3.93
2022-08-30T00:57:52.148Z,4.47
2022-08-30T01:00:21.743Z,4.63
2022-08-30T01:02:49.895Z,4.37
2022-08-30T01:05:20.340Z,4.33
2022-08-30T01:07:47.952Z,3.97
2022-08-30T01:10:17.460Z,5.10
2022-08-30T01:12:47.246Z,3.90
2022-08-30T01:15:15.985Z,4.80
2022-08-30T01:17:48.295Z,4.87
2022-08-30T01:20:21.480Z,4.60
2022-08-30T01:23:05.275Z,6.47
2022-08-30T01:25:35.604Z,4.70
2022-08-30T01:28:06.818Z,4.27
2022-08-30T01:30:35.578Z,4.30
2022-08-30T01:33:05.128Z,4.80
2022-08-30T01:35:36.981Z,4.17
2022-08-30T01:38:06.273Z,4.10
2022-08-30T01:40:33.996Z,4.20
2022-08-30T01:43:01.940Z,4.47
2022-08-30T01:45:29.684Z,4.17
2022-08-30T01:47:57.340Z,4.30
2022-08-30T01:50:29.274Z,4.70
2022-08-30T01:52:56.951Z,4.37
2022-08-30T01:55:26.188Z,4.50
2022-08-30T01:57:53.862Z,4.23
2022-08-30T02:00:21.655Z,4.70
2022-08-30T02:02:49.399Z,4.13
2022-08-30T02:05:17.201Z,4.20
2022-08-30T02:07:44.956Z,4.00
2022-08-30T02:10:14.928Z,4.60
2022-08-30T02:12:44.028Z,4.10
2022-08-30T02:15:12.917Z,4.53
2022-08-30T02:17:41.639Z,3.87
2022-08-30T02:20:11.303Z,3.63
2022-08-30T02:22:39.003Z,4.60
2022-08-30T02:25:20.391Z,4.43
2022-08-30T02:27:50.141Z,4.57
2022-08-30T02:30:19.044Z,3.80
2022-08-30T02:32:46.711Z,4.40
2022-08-30T02:35:14.572Z,4.00
2022-08-30T02:37:42.272Z,3.63
2022-08-30T02:40:11.644Z,4.00
2022-08-30T02:42:39.819Z,4.27
2022-08-30T02:45:10.084Z,3.77
2022-08-30T02:47:38.035Z,4.07
2022-08-30T02:50:07.632Z,3.93
2022-08-30T02:52:35.802Z,3.77
2022-08-30T02:55:04.453Z,3.97
2022-08-30T02:57:32.280Z,3.97
2022-08-30T03:00:01.222Z,4.60
2022-08-30T03:02:30.332Z,4.13
2022-08-30T03:04:58.694Z,4.50
2022-08-30T03:07:26.611Z,3.90
2022-08-30T03:09:54.295Z,4.47
2022-08-30T03:12:21.998Z,4.40
2022-08-30T03:14:49.683Z,4.40
2022-08-30T03:17:17.882Z,3.80
2022-08-30T03:19:47.047Z,4.57
2022-08-30T03:22:14.871Z,3.83
2022-08-30T03:24:42.581Z,5.10
2022-08-30T03:27:10.281Z,4.17
2022-08-30T03:29:39.170Z,5.00
2022-08-30T03:32:06.978Z,5.10
2022-08-30T03:34:34.804Z,4.63
2022-08-30T03:37:03.954Z,4.87
2022-08-30T03:39:31.944Z,5.07
2022-08-30T03:41:59.628Z,5.00
2022-08-30T03:44:27.432Z,4.10
2022-08-30T03:46:55.370Z,5.53
2022-08-30T03:49:24.380Z,4.93
2022-08-30T03:51:52.400Z,4.50
2022-08-30T03:54:22.789Z,5.03
2022-08-30T03:56:52.323Z,4.57
2022-08-30T03:59:19.986Z,4.63
2022-08-30T04:01:47.839Z,4.10
2022-08-30T04:04:20.511Z,4.67
2022-08-30T04:06:49.191Z,4.90
2022-08-30T04:09:16.916Z,4.80
2022-08-30T04:11:45.884Z,4.70
2022-08-30T04:14:13.915Z,4.80
2022-08-30T04:16:42.086Z,4.83
2022-08-30T04:19:10.065Z,5.17
2022-08-30T04:21:42.941Z,5.20
2022-08-30T04:24:11.257Z,6.80
2022-08-30T04:26:38.992Z,5.03
2022-08-30T04:29:08.026Z,5.40
2022-08-30T04:31:35.802Z,5.10
2022-08-30T04:34:03.547Z,5.67
2022-08-30T04:36:31.226Z,5.87
2022-08-30T04:38:58.888Z,5.40
2022-08-30T04:41:26.552Z,7.73
2022-08-30T04:43:54.254Z,6.70
2022-08-30T04:46:23.299Z,5.57
2022-08-30T04:48:51.105Z,6.40
2022-08-30T04:51:19.104Z,5.80
2022-08-30T04:53:47.257Z,5.40
2022-08-30T04:56:17.340Z,6.10
2022-08-30T04:58:45.340Z,5.83
2022-08-30T05:01:14.718Z,5.73
2022-08-30T05:03:48.127Z,6.30
2022-08-30T05:06:17.039Z,5.63
2022-08-30T05:08:46.236Z,5.70
2022-08-30T05:11:16.416Z,6.20
2022-08-30T05:13:45.021Z,5.80
2022-08-30T05:16:17.702Z,5.83
2022-08-30T05:18:46.725Z,5.40
2022-08-30T05:21:18.089Z,5.57
2022-08-30T05:23:46.355Z,6.03
2022-08-30T05:26:17.196Z,6.03
2022-08-30T05:28:45.747Z,6.20
2022-08-30T05:31:16.442Z,6.40
2022-08-30T05:33:44.470Z,7.07
2022-08-30T05:36:13.768Z,6.30
2022-08-30T05:38:43.729Z,7.43
2022-08-30T05:41:12.484Z,6.77
2022-08-30T05:43:40.818Z,7.40
2022-08-30T05:46:11.313Z,6.30
2022-08-30T05:48:39.885Z,7.03
2022-08-30T05:51:10.186Z,6.27
2022-08-30T05:53:38.439Z,6.83
2022-08-30T05:56:10.401Z,6.33
2022-08-30T05:58:38.560Z,6.20
2022-08-30T06:01:06.626Z,6.77
2022-08-30T06:03:34.587Z,6.43
2022-08-30T06:06:02.381Z,5.73
2022-08-30T06:08:30.280Z,6.60
2022-08-30T06:10:57.990Z,6.87
2022-08-30T06:13:27.028Z,5.83
2022-08-30T06:15:54.792Z,6.70
2022-08-30T06:18:28.560Z,6.23
2022-08-30T06:20:56.767Z,6.67
2022-08-30T06:23:24.655Z,6.10
2022-08-30T06:25:52.324Z,6.97
2022-08-30T06:28:19.990Z,5.03
2022-08-30T06:30:49.184Z,6.33
2022-08-30T06:33:20.008Z,5.67
2022-08-30T06:35:59.198Z,4.93
2022-08-30T06:38:28.218Z,5.13
2022-08-30T06:40:55.915Z,5.57
2022-08-30T06:43:23.588Z,5.30
2022-08-30T06:45:53.052Z,5.50
2022-08-30T06:48:20.952Z,5.43
2022-08-30T06:50:54.705Z,5.03
2022-08-30T06:53:22.750Z,4.90
2022-08-30T06:55:57.787Z,4.00
2022-08-30T06:58:26.369Z,4.00
2022-08-30T07:00:55.516Z,4.43
2022-08-30T07:03:23.429Z,4.90
2022-08-30T07:05:51.875Z,4.13
2022-08-30T07:08:19.763Z,4.57
2022-08-30T07:10:48.418Z,4.57
2022-08-30T07:13:16.990Z,4.40
2022-08-30T07:15:45.810Z,3.80
2022-08-30T07:18:33.711Z,4.03
2022-08-30T07:21:08.422Z,3.67
2022-08-30T07:23:36.349Z,4.53
2022-08-30T07:26:05.760Z,4.63
2022-08-30T07:28:34.258Z,3.90
2022-08-30T07:31:02.088Z,4.17
2022-08-30T07:33:31.298Z,4.80
2022-08-30T07:35:59.382Z,4.37
2022-08-30T07:38:30.347Z,4.63
2022-08-30T07:40:59.115Z,5.20
2022-08-30T07:43:26.809Z,4.63
2022-08-30T07:45:54.609Z,4.80
2022-08-30T07:48:24.805Z,5.80
2022-08-30T07:50:57.689Z,5.30
2022-08-30T07:53:28.838Z,5.10
2022-08-30T07:55:56.620Z,4.83
2022-08-30T07:58:24.404Z,4.87
2022-08-30T08:00:52.249Z,4.37
2022-08-30T08:03:20.194Z,4.20
2022-08-30T08:05:48.206Z,4.47
2022-08-30T08:08:17.481Z,5.00
2022-08-30T08:10:45.318Z,4.80
2022-08-30T08:13:13.184Z,4.43
2022-08-30T08:15:41.169Z,4.43
2022-08-30T08:18:08.975Z,4.80
2022-08-30T08:20:37.047Z,3.57
2022-08-30T08:23:05.018Z,5.23
2022-08-30T08:25:35.355Z,5.10
2022-08-30T08:28:03.087Z,4.50
2022-08-30T08:30:34.988Z,3.67
2022-08-30T08:33:03.731Z,4.00
2022-08-30T08:35:31.756Z,4.90
2022-08-30T08:37:59.625Z,4.80
2022-08-30T08:40:28.173Z,4.00
2022-08-30T08:43:03.306Z,4.17
2022-08-30T08:45:42.071Z,4.47
2022-08-30T08:48:13.071Z,3.93
2022-08-30T08:51:02.798Z,4.00
2022-08-30T08:53:46.493Z,4.13
2022-08-30T08:56:16.971Z,3.60
2022-08-30T08:58:48.875Z,3.63
2022-08-30T09:01:19.057Z,4.13
2022-08-30T09:03:47.675Z,4.37
2022-08-30T09:06:45.395Z,3.60
2022-08-30T09:09:13.725Z,3.77
2022-08-30T09:11:44.335Z,3.73
2022-08-30T09:14:19.088Z,4.47
2022-08-30T09:17:02.759Z,3.90
2022-08-30T09:19:37.573Z,4.60
2022-08-30T09:22:13.522Z,3.83
2022-08-30T09:24:44.388Z,5.20
2022-08-30T09:27:16.738Z,4.20
2022-08-30T09:29:58.063Z,3.90
2022-08-30T09:32:28.455Z,4.20
2022-08-30T09:34:56.646Z,4.30
2022-08-30T09:37:28.817Z,3.23
2022-08-30T09:39:56.832Z,3.40
2022-08-30T09:42:27.156Z,3.53
2022-08-30T09:45:10.276Z,3.80
2022-08-30T09:47:41.123Z,4.10
2022-08-30T09:50:12.470Z,2.80
2022-08-30T09:52:52.105Z,3.90
2022-08-30T09:55:34.244Z,4.13
2022-08-30T09:58:12.930Z,4.40
2022-08-30T10:00:53.851Z,3.43
2022-08-30T10:03:40.326Z,4.20
2022-08-30T10:06:16.376Z,3.40
2022-08-30T10:08:52.776Z,3.70
2022-08-30T10:11:28.247Z,3.60
2022-08-30T10:14:20.761Z,3.33
2022-08-30T10:16:59.327Z,4.07
2022-08-30T10:19:38.474Z,3.57
2022-08-30T10:22:12.236Z,2.90
2022-08-30T10:24:45.625Z,2.87
2022-08-30T10:27:18.431Z,3.20
2022-08-30T10:29:52.354Z,3.00
2022-08-30T10:32:28.267Z,2.93
2022-08-30T10:35:01.633Z,3.70
2022-08-30T10:37:32.193Z,3.47
2022-08-30T10:40:26.071Z,3.30
2022-08-30T10:42:55.006Z,4.00
2022-08-30T10:45:24.307Z,3.20
2022-08-30T10:48:01.304Z,3.20
2022-08-30T10:50:38.456Z,3.50
2022-08-30T10:53:15.353Z,2.30
2022-08-30T10:55:50.191Z,4.03
2022-08-30T10:58:19.715Z,3.03
2022-08-30T11:01:00.159Z,2.70
2022-08-30T11:04:08.355Z,3.17
2022-08-30T11:06:47.639Z,2.93
2022-08-30T11:09:31.910Z,2.53
2022-08-30T11:12:22.473Z,2.40
2022-08-30T11:14:53.541Z,3.40
2022-08-30T11:17:28.368Z,3.00
2022-08-30T11:20:01.162Z,2.30
2022-08-30T11:22:35.568Z,3.13
2022-08-30T11:25:11.389Z,2.60
2022-08-30T11:27:48.819Z,2.70
2022-08-30T11:30:51.385Z,3.03
2022-08-30T11:33:46.145Z,2.33
2022-08-30T11:36:52.753Z,3.10
2022-08-30T11:39:55.012Z,2.53
2022-08-30T11:42:38.693Z,2.90
2022-08-30T11:45:44.627Z,2.80
2022-08-30T11:48:55.564Z,2.50
2022-08-30T11:52:27.074Z,2.97
2022-08-30T11:55:04.080Z,2.43
2022-08-30T11:57:45.343Z,2.60
2022-08-30T12:00:28.945Z,2.03
2022-08-30T12:02:59.314Z,2.50
2022-08-30T12:05:59.740Z,2.40
2022-08-30T12:08:55.206Z,3.03
2022-08-30T12:12:02.565Z,2.70
2022-08-30T12:14:44.515Z,3.57
2022-08-30T12:17:36.422Z,3.10
2022-08-30T12:20:06.300Z,2.80
2022-08-30T12:22:37.777Z,3.00
2022-08-30T12:25:16.803Z,2.60
2022-08-30T12:27:46.541Z,2.70
2022-08-30T12:30:15.506Z,2.70
2022-08-30T12:32:48.779Z,2.73
2022-08-30T12:35:21.774Z,2.50
2022-08-30T12:37:59.783Z,2.70
2022-08-30T12:40:28.384Z,2.70
2022-08-30T12:43:01.093Z,2.77
2022-08-30T12:45:32.983Z,3.20
2022-08-30T12:48:04.291Z,2.80
2022-08-30T12:50:36.369Z,3.50
2022-08-30T12:53:13.539Z,3.50
2022-08-30T12:55:53.118Z,3.13
2022-08-30T12:58:39.915Z,3.00
2022-08-30T13:01:27.440Z,3.57
2022-08-30T13:04:02.589Z,3.23
2022-08-30T13:06:44.222Z,3.50
2022-08-30T13:09:23.855Z,3.47
2022-08-30T13:11:52.326Z,3.27
2022-08-30T13:14:32.928Z,3.37
2022-08-30T13:17:13.431Z,3.03
2022-08-30T13:19:43.210Z,3.00
2022-08-30T13:22:26.081Z,3.10
2022-08-30T13:24:54.803Z,3.47
2022-08-30T13:27:22.943Z,3.40
2022-08-30T13:29:52.096Z,3.00
2022-08-30T13:32:20.771Z,3.17
2022-08-30T13:34:48.481Z,2.53
2022-08-30T13:40:09.303Z,2.70
2022-08-30T13:42:37.048Z,2.93
2022-08-30T13:45:40.978Z,3.90
2022-08-30T13:47:55.990Z,2.60
2022-08-30T13:50:24.056Z,2.70
2022-08-30T13:52:55.034Z,2.50
2022-08-30T13:55:22.726Z,2.50
2022-08-30T13:57:54.481Z,2.90
2022-08-30T14:00:25.512Z,2.70
2022-08-30T14:02:55.913Z,2.43
2022-08-30T14:11:07.091Z,2.63
2022-08-30T14:13:35.114Z,2.77
2022-08-30T14:18:55.325Z,2.90
2022-08-30T14:21:24.845Z,2.90
2022-08-30T14:23:52.853Z,2.77
2022-08-30T14:26:23.219Z,2.90
2022-08-30T14:28:52.172Z,2.53
2022-08-30T14:31:21.621Z,2.90
2022-08-30T14:33:49.505Z,2.63
2022-08-30T14:36:17.210Z,2.67
2022-08-30T14:38:45.410Z,2.60
2022-08-30T14:41:13.233Z,2.60
2022-08-30T14:43:41.200Z,3.03
2022-08-30T14:46:10.035Z,3.00
2022-08-30T14:48:41.624Z,3.07
2022-08-30T14:51:13.814Z,3.30
2022-08-30T14:53:42.100Z,3.00
2022-08-30T14:56:11.560Z,3.00
2022-08-30T14:58:39.300Z,2.90
2022-08-30T15:01:08.915Z,2.77
2022-08-30T15:03:40.579Z,2.70
2022-08-30T15:06:08.874Z,3.13
2022-08-30T15:08:38.337Z,2.30
2022-08-30T15:11:09.947Z,2.57
2022-08-30T15:13:38.414Z,2.70
2022-08-30T15:16:12.197Z,3.33
2022-08-30T15:18:41.984Z,2.63
2022-08-30T15:21:10.608Z,2.80
2022-08-30T15:23:39.395Z,2.57
2022-08-30T15:26:08.266Z,2.70
2022-08-30T15:28:37.955Z,2.97
2022-08-30T15:31:09.090Z,2.00
2022-08-30T15:33:37.583Z,2.37
2022-08-30T15:36:08.213Z,2.47
2022-08-30T15:38:37.316Z,3.03
2022-08-30T15:41:09.134Z,2.10
2022-08-30T15:43:37.767Z,3.33
2022-08-30T15:46:17.948Z,2.60
2022-08-30T15:48:47.704Z,2.80
2022-08-30T15:51:17.603Z,2.47
2022-08-30T15:53:46.461Z,5.37
2022-08-30T15:56:14.278Z,3.30
2022-08-30T15:58:42.598Z,2.60
2022-08-30T16:01:12.095Z,2.50
2022-08-30T16:03:41.576Z,2.93
2022-08-30T16:06:14.433Z,2.73
2022-08-30T16:08:44.638Z,2.60
2022-08-30T16:11:16.532Z,2.33
2022-08-30T16:13:49.539Z,2.80
2022-08-30T16:16:20.616Z,2.70
2022-08-30T16:18:53.911Z,2.20
2022-08-30T16:21:24.827Z,2.83
2022-08-30T16:23:57.024Z,2.27
2022-08-30T16:26:25.786Z,2.93
2022-08-30T16:28:54.632Z,2.20
2022-08-30T16:31:23.504Z,2.50
2022-08-30T16:33:52.947Z,2.43
2022-08-30T16:36:21.446Z,2.67
2022-08-30T16:38:53.521Z,2.30
2022-08-30T16:41:25.062Z,2.40
2022-08-30T16:43:53.806Z,2.67
2022-08-30T16:46:27.523Z,2.93
2022-08-30T16:48:57.781Z,2.20
2022-08-30T16:51:27.886Z,2.30
2022-08-30T16:53:56.623Z,2.57
2022-08-30T16:56:27.314Z,2.50
2022-08-30T16:59:01.424Z,2.50
2022-08-30T17:01:31.515Z,2.63
2022-08-30T17:04:00.188Z,2.40
2022-08-30T17:06:28.371Z,2.80
2022-08-30T17:08:57.094Z,2.17
2022-08-30T17:11:27.280Z,2.23
2022-08-30T17:13:55.068Z,2.50
2022-08-30T17:16:28.192Z,1.90
2022-08-30T17:19:00.489Z,2.10
2022-08-30T17:21:29.091Z,2.30
2022-08-30T17:24:01.925Z,2.40
2022-08-30T17:26:32.232Z,2.03
2022-08-30T17:29:00.169Z,1.80
2022-08-30T17:31:30.418Z,2.00
2022-08-30T17:34:02.768Z,2.60
2022-08-30T17:36:36.640Z,2.10
2022-08-30T17:39:11.440Z,2.00
2022-08-30T17:41:45.156Z,2.00
2022-08-30T17:44:18.579Z,1.90
2022-08-30T17:46:46.463Z,2.00
2022-08-30T17:49:15.187Z,2.40
2022-08-30T17:51:44.340Z,2.00
2022-08-30T17:54:13.614Z,1.77
2022-08-30T17:56:42.891Z,2.03
2022-08-30T17:59:11.424Z,2.03
2022-08-30T18:01:41.538Z,1.83
2022-08-30T18:04:11.232Z,2.27
2022-08-30T18:06:39.828Z,1.73
2022-08-30T18:09:09.029Z,1.80
2022-08-30T18:11:39.564Z,1.67
2022-08-30T18:14:10.805Z,1.87
2022-08-30T18:16:47.465Z,1.53
2022-08-30T18:19:20.924Z,1.90
2022-08-30T18:21:48.833Z,2.57
2022-08-30T18:24:17.217Z,1.53
2022-08-30T18:26:45.209Z,2.20
2022-08-30T18:29:14.399Z,2.53
2022-08-30T18:31:42.155Z,2.30
2022-08-30T18:34:12.150Z,2.30
2022-08-30T18:36:41.332Z,2.10
2022-08-30T18:39:09.273Z,2.20
2022-08-30T18:41:42.209Z,2.20
2022-08-30T18:44:27.326Z,2.10
2022-08-30T18:47:00.508Z,2.70
2022-08-30T18:49:28.983Z,2.43
2022-08-30T18:51:59.999Z,2.27
2022-08-30T18:54:27.653Z,2.40
2022-08-30T18:56:55.531Z,2.60
2022-08-30T18:59:23.176Z,2.87
2022-08-30T19:02:05.519Z,2.67
2022-08-30T19:04:35.776Z,2.70
2022-08-30T19:07:05.044Z,3.03
2022-08-30T19:09:32.986Z,2.37
2022-08-30T19:12:01.035Z,2.60
2022-08-30T19:14:28.813Z,2.83
2022-08-30T19:16:57.210Z,2.87
2022-08-30T19:19:26.695Z,2.43
2022-08-30T19:21:54.411Z,2.97
2022-08-30T19:24:22.345Z,2.80
2022-08-30T19:26:50.018Z,2.77
2022-08-30T19:29:17.740Z,2.63
2022-08-30T19:31:45.917Z,2.83
2022-08-30T19:34:13.705Z,2.70
2022-08-30T19:36:42.799Z,2.93
2022-08-30T19:39:12.744Z,2.30
2022-08-30T19:41:40.914Z,2.73
2022-08-30T19:44:08.551Z,2.30
2022-08-30T19:46:37.715Z,2.50
2022-08-30T19:49:08.423Z,2.33
2022-08-30T19:51:37.233Z,3.10
2022-08-30T19:54:07.272Z,2.53
2022-08-30T19:56:35.640Z,3.00
2022-08-30T19:59:03.690Z,2.27
2022-08-30T20:01:33.625Z,2.33
2022-08-30T20:04:02.596Z,2.13
2022-08-30T20:06:30.776Z,3.13
2022-08-30T20:09:00.300Z,2.80
2022-08-30T20:11:29.823Z,2.70
2022-08-30T20:13:58.120Z,2.37
2022-08-30T20:16:30.995Z,2.77
2022-08-30T20:19:05.051Z,6.77
2022-08-30T20:21:33.941Z,2.33
2022-08-30T20:24:01.756Z,2.60
2022-08-30T20:26:34.012Z,3.20
2022-08-30T20:29:02.644Z,2.80
2022-08-30T20:31:30.569Z,2.07
2022-08-30T20:33:58.578Z,2.37
2022-08-30T20:36:26.956Z,2.57
2022-08-30T20:38:54.942Z,2.90
2022-08-30T20:41:26.888Z,2.47
2022-08-30T20:43:57.328Z,2.70
2022-08-30T20:46:25.023Z,2.50
2022-08-30T20:48:52.762Z,2.93
2022-08-30T20:51:23.123Z,2.63
2022-08-30T20:53:51.618Z,2.43
2022-08-30T20:56:22.487Z,2.53
2022-08-30T20:58:51.129Z,2.70
2022-08-30T21:01:20.939Z,2.20
2022-08-30T21:03:50.269Z,2.90
2022-08-30T21:06:17.945Z,2.80
2022-08-30T21:08:45.868Z,2.80
2022-08-30T21:11:13.895Z,2.60
2022-08-30T21:13:41.730Z,1.90
2022-08-30T21:16:09.477Z,2.17
2022-08-30T21:18:41.513Z,2.60
2022-08-30T21:21:10.775Z,2.53
2022-08-30T21:23:38.700Z,2.07
2022-08-30T21:26:07.112Z,1.90
2022-08-30T21:28:34.907Z,2.80
2022-08-30T21:31:08.206Z,2.43
2022-08-30T21:33:36.069Z,2.40
2022-08-30T21:36:23.550Z,2.50
2022-08-30T21:38:52.539Z,2.20
2022-08-30T21:41:21.930Z,2.50
2022-08-30T21:43:49.714Z,2.13
2022-08-30T21:46:17.881Z,2.07
2022-08-30T21:48:46.472Z,2.30
2022-08-30T21:51:15.631Z,1.97
2022-08-30T21:53:43.299Z,2.43
2022-08-30T21:56:13.237Z,2.60
2022-08-30T21:58:45.493Z,2.37
2022-08-30T22:01:14.988Z,2.40
2022-08-30T22:03:42.803Z,2.47
2022-08-30T22:06:12.191Z,2.50
2022-08-30T22:08:42.925Z,2.40
2022-08-30T22:11:13.947Z,2.47
2022-08-30T22:13:44.585Z,2.30
2022-08-30T22:16:12.918Z,2.33
2022-08-30T22:18:41.106Z,2.27
2022-08-30T22:21:09.959Z,2.20
2022-08-30T22:23:38.498Z,2.40
2022-08-30T22:26:09.303Z,2.60
2022-08-30T22:28:37.421Z,2.57
2022-08-30T22:31:07.653Z,2.23
2022-08-30T22:33:36.047Z,2.37
2022-08-30T22:36:06.824Z,1.97
2022-08-30T22:38:34.875Z,2.40
2022-08-30T22:41:02.881Z,2.20
2022-08-30T22:43:31.906Z,2.37
2022-08-30T22:45:59.787Z,2.13
2022-08-30T22:48:27.518Z,2.30
2022-08-30T22:50:55.162Z,2.33
2022-08-30T22:53:22.775Z,2.37
2022-08-30T22:55:50.445Z,2.50
2022-08-30T22:58:19.452Z,2.40
2022-08-30T23:00:54.649Z,2.60
2022-08-30T23:03:23.528Z,2.20
2022-08-30T23:05:51.155Z,1.80
2022-08-30T23:08:18.884Z,2.10
2022-08-30T23:10:46.587Z,3.30
2022-08-30T23:13:14.287Z,2.07
2022-08-30T23:15:42.015Z,2.87
2022-08-30T23:18:11.527Z,2.27
2022-08-30T23:20:39.160Z,2.60
2022-08-30T23:23:05.863Z,2.63
2022-08-30T23:25:52.285Z,2.40
2022-08-30T23:28:39.467Z,2.37
2022-08-30T23:31:30.114Z,2.10
2022-08-30T23:34:17.172Z,2.60
2022-08-30T23:37:02.823Z,2.87
2022-08-30T23:39:48.054Z,2.60
2022-08-30T23:42:33.706Z,2.47
2022-08-30T23:45:18.759Z,2.37
2022-08-30T23:48:04.329Z,2.23
2022-08-30T23:50:50.684Z,2.73
2022-08-30T23:53:35.801Z,2.17
2022-08-30T23:56:21.595Z,2.67
2022-08-30T23:59:06.589Z,2.40
